Time;durP1;ratioP1;P1;durP2;ratioP2;P2;SDS_P1;SDS_P2;PMS_P1;PMS_P2;Temp;Humidity;BMP_temperature;BMP_pressure;BME280_temperature;BME280_humidity;BME280_pressure;Samples;Min_cycle;Max_cycle;Signal;HPM_P1;HPM_P2
2023/03/23 00:01:19;;;;;;;56.50;27.50;;;;;;;16.64;36.55;100124.35;108278;1251;61443;-65
2023/03/23 00:03:47;;;;;;;43.60;23.40;;;;;;;16.59;36.82;100125.54;108232;1256;60644;-65
2023/03/23 00:06:17;;;;;;;50.30;25.50;;;;;;;16.67;36.83;100125.61;108422;1257;75436;-64
2023/03/23 00:08:47;;;;;;;57.80;29.00;;;;;;;16.72;36.71;100121.36;108312;1255;69831;-65
2023/03/23 00:11:18;;;;;;;54.70;29.80;;;;;;;16.76;36.82;100119.58;108239;1255;71789;-66
2023/03/23 00:13:51;;;;;;;57.40;29.00;;;;;;;16.41;37.30;100125.39;108202;1253;61936;-65
2023/03/23 00:16:20;;;;;;;75.20;37.30;;;;;;;16.35;37.36;100123.85;108239;1251;61152;-65
2023/03/23 00:18:49;;;;;;;70.60;34.60;;;;;;;16.25;37.61;100125.70;108251;1254;75045;-66
2023/03/23 00:21:25;;;;;;;78.10;39.30;;;;;;;16.26;37.75;100120.67;108242;1254;68753;-66
2023/03/23 00:23:52;;;;;;;73.30;36.90;;;;;;;16.22;37.86;100119.50;108261;1254;73959;-65
2023/03/23 00:26:19;;;;;;;58.30;30.40;;;;;;;16.19;38.05;100118.81;108210;1255;62068;-62
2023/03/23 00:28:47;;;;;;;66.60;32.00;;;;;;;16.23;37.97;100116.05;108257;1256;60385;-64
2023/03/23 00:31:16;;;;;;;62.40;32.40;;;;;;;16.27;37.96;100110.00;108191;1256;73867;-65
2023/03/23 00:33:43;;;;;;;65.50;34.20;;;;;;;16.23;38.02;100113.06;108218;1254;70618;-66
2023/03/23 00:36:12;;;;;;;62.00;33.40;;;;;;;16.27;37.96;100104.45;108157;1254;72827;-66
2023/03/23 00:38:39;;;;;;;61.90;30.90;;;;;;;16.34;37.96;100102.66;108088;1254;60365;-67
2023/03/23 00:41:06;;;;;;;64.00;31.90;;;;;;;16.32;37.94;100104.88;108331;1254;60507;-68
2023/03/23 00:43:35;;;;;;;52.80;27.70;;;;;;;16.14;38.19;100103.13;108166;1257;75109;-66
2023/03/23 00:46:08;;;;;;;76.00;35.20;;;;;;;16.10;38.27;100105.33;108221;1253;72187;-65
2023/03/23 00:48:36;;;;;;;74.00;37.00;;;;;;;16.09;38.31;100098.80;108104;1255;70819;-65
2023/03/23 00:51:05;;;;;;;69.20;33.30;;;;;;;16.13;38.15;100092.55;108251;1256;60168;-65
2023/03/23 00:53:35;;;;;;;72.60;36.40;;;;;;;16.16;38.04;100086.88;108310;1257;60434;-65
2023/03/23 00:56:02;;;;;;;81.00;39.50;;;;;;;16.14;38.02;100080.08;108176;1256;73237;-64
2023/03/23 00:58:34;;;;;;;66.20;35.70;;;;;;;16.11;38.23;100077.67;108205;1256;70541;-65
2023/03/23 01:01:02;;;;;;;69.80;35.70;;;;;;;16.14;38.45;100075.48;108248;1251;73643;-65
2023/03/23 01:03:30;;;;;;;65.70;34.80;;;;;;;16.00;38.78;100077.21;108300;1251;61649;-67
2023/03/23 01:06:08;;;;;;;100.40;50.90;;;;;;;16.19;38.97;100076.98;108234;1251;60276;-65
2023/03/23 01:08:39;;;;;;;102.80;50.60;;;;;;;16.38;39.58;100079.38;108272;1253;72789;-66
2023/03/23 01:11:06;;;;;;;79.70;40.40;;;;;;;16.60;39.83;100073.73;108388;1251;70206;-66
2023/03/23 01:13:33;;;;;;;125.30;60.20;;;;;;;16.75;39.67;100070.48;108176;1251;73848;-66
2023/03/23 01:16:00;;;;;;;111.90;56.50;;;;;;;16.89;39.37;100064.45;108258;1251;62077;-66
2023/03/23 01:18:27;;;;;;;89.10;41.60;;;;;;;17.04;39.17;100060.49;108298;1253;61612;-66
2023/03/23 01:20:55;;;;;;;95.50;47.70;;;;;;;17.12;38.93;100060.52;108216;1256;73106;-66
2023/03/23 01:23:22;;;;;;;82.50;42.20;;;;;;;17.07;38.77;100057.13;108292;1251;70016;-65
2023/03/23 01:25:49;;;;;;;81.20;42.80;;;;;;;17.05;38.67;100056.70;108326;1251;73605;-65
2023/03/23 01:28:16;;;;;;;95.20;43.80;;;;;;;17.11;38.32;100052.09;108251;1251;60988;-66
2023/03/23 01:30:44;;;;;;;61.90;32.20;;;;;;;16.98;38.37;100051.46;108256;1256;60517;-66
2023/03/23 01:33:11;;;;;;;85.80;43.00;;;;;;;16.90;38.52;100050.77;108289;1251;74907;-66
2023/03/23 01:35:38;;;;;;;80.00;41.20;;;;;;;16.73;38.56;100050.76;108201;1254;70895;-66
2023/03/23 01:38:05;;;;;;;89.10;44.90;;;;;;;16.70;38.55;100055.90;108205;1254;73711;-65
2023/03/23 01:40:34;;;;;;;93.10;46.40;;;;;;;16.62;38.57;100053.21;108239;1253;61194;-67
2023/03/23 01:43:01;;;;;;;93.10;44.80;;;;;;;16.51;38.76;100055.83;108210;1254;60344;-66
2023/03/23 01:45:31;;;;;;;91.40;46.80;;;;;;;16.55;38.66;100056.63;108245;1254;73248;-66
2023/03/23 01:48:00;;;;;;;78.50;40.60;;;;;;;16.67;38.56;100057.17;108190;1254;69483;-65
2023/03/23 01:50:30;;;;;;;82.70;42.90;;;;;;;16.70;38.55;100059.80;108091;1253;73630;-65
2023/03/23 01:52:58;;;;;;;92.70;45.30;;;;;;;16.69;38.55;100062.52;108103;1254;60701;-65
2023/03/23 01:55:25;;;;;;;77.60;39.80;;;;;;;16.98;38.32;100063.51;108216;1254;61289;-64
2023/03/23 01:57:53;;;;;;;91.20;44.30;;;;;;;17.08;38.03;100065.73;107936;1259;75854;-66
2023/03/23 02:00:21;;;;;;;86.70;43.50;;;;;;;17.14;37.83;100058.04;108119;1254;71621;-65
2023/03/23 02:02:52;;;;;;;;;;;;;;;16.56;38.70;100060.66;108067;1257;73658;-66
2023/03/23 02:05:31;;;;;;;78.80;40.20;;;;;;;16.54;38.69;100062.38;108129;1254;62046;-66
2023/03/23 02:08:02;;;;;;;76.80;38.10;;;;;;;16.67;38.41;100059.65;108112;1254;61370;-64
2023/03/23 02:10:30;;;;;;;66.90;34.70;;;;;;;16.63;38.37;100059.19;108056;1254;75040;-65
2023/03/23 02:12:59;;;;;;;106.60;54.20;;;;;;;16.59;38.43;100058.94;108085;1254;71398;-64
2023/03/23 02:15:29;;;;;;;122.40;59.00;;;;;;;16.53;38.78;100060.15;108070;1253;73847;-65
2023/03/23 02:18:06;;;;;;;128.10;65.60;;;;;;;16.53;38.95;100064.38;108085;1253;62423;-67
2023/03/23 02:21:15;;;;;;;119.70;58.60;;;;;;;16.76;38.69;100059.08;108108;1254;60377;-64
2023/03/23 02:24:02;;;;;;;113.50;58.00;;;;;;;16.68;39.01;100057.98;108047;1254;74141;-64
2023/03/23 02:26:42;;;;;;;113.80;58.30;;;;;;;16.89;38.76;100053.98;108213;1254;70086;-66
2023/03/23 02:29:14;;;;;;;113.70;56.60;;;;;;;16.79;38.87;100055.69;108066;1254;72693;-64
2023/03/23 02:31:53;;;;;;;97.00;52.10;;;;;;;16.89;38.79;100053.63;108109;1257;60893;-66
2023/03/23 02:34:29;;;;;;;97.00;49.20;;;;;;;16.88;38.87;100056.20;108148;1251;60434;-64
2023/03/23 02:37:05;;;;;;;108.70;52.70;;;;;;;16.85;39.01;100058.56;108193;1251;75092;-64
2023/03/23 02:39:37;;;;;;;93.90;47.80;;;;;;;16.58;39.43;100062.54;108201;1251;68584;-65
2023/03/23 02:42:06;;;;;;;111.50;55.70;;;;;;;16.49;39.89;100062.19;108204;1251;73114;-65
2023/03/23 02:44:37;;;;;;;107.70;53.90;;;;;;;16.61;39.75;100062.30;108216;1251;62188;-65
2023/03/23 02:47:08;;;;;;;98.60;50.40;;;;;;;16.65;39.74;100057.64;108262;1251;61126;-66
2023/03/23 02:49:37;;;;;;;107.80;52.00;;;;;;;16.76;39.58;100054.29;108154;1251;170048;-67
2023/03/23 02:52:43;;;;;;;98.70;50.00;;;;;;;12.51;48.41;100068.75;104902;1290;599548;-65
2023/03/23 02:55:11;;;;;;;104.30;54.30;;;;;;;14.04;45.20;100060.98;107290;1263;59529;-67
2023/03/23 02:57:38;;;;;;;102.50;54.40;;;;;;;14.31;44.86;100058.70;107227;1264;59142;-66
2023/03/23 03:00:10;;;;;;;100.10;52.70;;;;;;;14.48;45.35;100055.63;107375;1263;72037;-66
2023/03/23 03:02:52;;;;;;;102.50;53.90;;;;;;;14.94;45.45;100059.45;107350;1264;70224;-65
2023/03/23 03:05:37;;;;;;;112.80;56.90;;;;;;;15.44;45.03;100057.70;107262;1263;123031;-63
2023/03/23 03:08:08;;;;;;;95.70;52.10;;;;;;;15.92;45.18;100058.92;107394;1264;59965;-64
2023/03/23 03:10:54;;;;;;;87.80;49.90;;;;;;;16.34;44.92;100059.20;107268;1263;61222;-65
2023/03/23 03:13:47;;;;;;;96.40;53.00;;;;;;;16.92;44.12;100055.02;107296;1266;72210;-64
2023/03/23 03:16:35;;;;;;;96.40;50.40;;;;;;;16.94;44.11;100059.50;107381;1263;71136;-66
2023/03/23 03:19:08;;;;;;;88.80;45.50;;;;;;;17.32;43.43;100061.52;107310;1263;72939;-65
2023/03/23 03:21:38;;;;;;;94.60;51.70;;;;;;;17.19;43.66;100063.40;107320;1263;62234;-66
2023/03/23 03:24:10;;;;;;;90.60;46.40;;;;;;;17.33;43.58;100066.95;107379;1263;61638;-65
2023/03/23 03:26:40;;;;;;;85.10;45.50;;;;;;;17.49;43.17;100059.14;107380;1263;73335;-64
2023/03/23 03:29:25;;;;;;;87.80;48.00;;;;;;;17.64;42.93;100057.95;107436;1264;70220;-64
2023/03/23 03:31:55;;;;;;;78.80;42.60;;;;;;;17.68;42.70;100058.17;107285;1263;73740;-65
2023/03/23 03:34:24;;;;;;;81.20;44.60;;;;;;;17.83;42.61;100055.79;107325;1263;60743;-65
2023/03/23 03:36:53;;;;;;;89.90;46.30;;;;;;;18.10;42.35;100050.72;107369;1263;60031;-67
2023/03/23 03:39:21;;;;;;;78.00;42.80;;;;;;;18.10;42.64;100047.52;107356;1266;74022;-65
2023/03/23 03:41:48;;;;;;;86.60;46.10;;;;;;;18.41;42.00;100045.23;107299;1263;70304;-66
2023/03/23 03:44:16;;;;;;;75.30;43.00;;;;;;;18.63;41.74;100044.69;107373;1263;72759;-64
2023/03/23 03:46:43;;;;;;;77.80;43.50;;;;;;;18.88;41.26;100040.94;107388;1263;61433;-67
2023/03/23 03:49:14;;;;;;;83.50;48.70;;;;;;;19.07;41.12;100039.91;107350;1263;59728;-69
2023/03/23 03:51:42;;;;;;;77.60;43.20;;;;;;;19.20;40.94;100035.17;107364;1263;74188;-67
2023/03/23 03:54:13;;;;;;;72.10;42.00;;;;;;;19.54;40.03;100038.19;107407;1263;70775;-66
2023/03/23 03:56:45;;;;;;;73.50;40.60;;;;;;;19.81;39.18;100043.79;107467;1263;72289;-65
2023/03/23 03:59:32;;;;;;;69.50;39.20;;;;;;;19.37;39.97;100039.14;107726;1263;62127;-65
2023/03/23 04:02:23;;;;;;;71.40;37.60;;;;;;;19.17;39.99;100037.02;107518;1263;60365;-66
2023/03/23 04:04:52;;;;;;;72.40;41.20;;;;;;;19.71;39.06;100039.00;107618;1264;72290;-65
2023/03/23 04:07:21;;;;;;;64.20;38.70;;;;;;;20.39;38.10;100041.58;107476;1263;70436;-66
2023/03/23 04:09:49;;;;;;;77.00;43.90;;;;;;;19.79;38.63;100046.77;107394;1264;71798;-65
2023/03/23 04:12:18;;;;;;;74.00;42.00;;;;;;;19.47;39.16;100047.48;107324;1263;63061;-68
2023/03/23 04:15:14;;;;;;;58.70;35.60;;;;;;;19.18;39.81;100044.27;107074;1263;61648;-70
2023/03/23 04:17:44;;;;;;;71.20;41.10;;;;;;;19.19;39.87;100044.72;107877;1255;74109;-66
2023/03/23 04:20:17;;;;;;;64.50;38.50;;;;;;;19.31;39.83;100043.46;107573;1257;71951;-66
2023/03/23 04:22:51;;;;;;;63.10;36.40;;;;;;;20.08;38.44;100051.02;107879;1256;73646;-65
2023/03/23 04:25:22;;;;;;;76.40;41.60;;;;;;;20.31;37.86;100055.24;107706;1261;61058;-62
2023/03/23 04:27:52;;;;;;;71.20;40.80;;;;;;;20.07;38.22;100057.88;107934;1256;60987;-65
2023/03/23 04:30:22;;;;;;;61.70;35.60;;;;;;;19.64;38.79;100053.67;107885;1256;72547;-64
2023/03/23 04:33:14;;;;;;;75.50;45.70;;;;;;;19.95;38.38;100048.98;107969;1256;71531;-66
2023/03/23 04:35:42;;;;;;;63.70;37.90;;;;;;;20.08;38.56;100048.20;107741;1256;70740;-66
2023/03/23 04:38:20;;;;;;;74.60;41.80;;;;;;;20.26;38.85;100051.04;107774;1257;62374;-67
2023/03/23 04:40:47;;;;;;;69.60;40.70;;;;;;;20.63;38.47;100049.21;107925;1256;59992;-67
2023/03/23 04:43:44;;;;;;;61.40;35.90;;;;;;;21.18;37.47;100048.09;107659;1256;74326;-66
2023/03/23 04:46:34;;;;;;;65.10;37.70;;;;;;;21.61;36.67;100044.96;107768;1256;71538;-66
2023/03/23 04:49:06;;;;;;;69.00;40.00;;;;;;;21.73;35.89;100042.34;107711;1257;73806;-65
2023/03/23 04:51:39;;;;;;;67.10;40.90;;;;;;;21.74;36.03;100043.79;107881;1256;63305;-68
2023/03/23 04:54:27;;;;;;;65.40;39.00;;;;;;;21.85;35.58;100042.48;107896;1256;59521;-68
2023/03/23 04:56:56;;;;;;;65.70;40.40;;;;;;;21.93;35.38;100047.57;107926;1256;74218;-66
2023/03/23 04:59:30;;;;;;;59.50;35.80;;;;;;;21.91;35.43;100041.13;107957;1256;71597;-68
2023/03/23 05:02:14;;;;;;;65.30;38.30;;;;;;;21.84;35.70;100040.23;107882;1257;73844;-65
2023/03/23 05:04:45;;;;;;;75.80;39.90;;;;;;;21.68;35.78;100042.70;107767;1256;61437;-66
2023/03/23 05:07:18;;;;;;;58.10;34.30;;;;;;;21.81;35.86;100040.16;107737;1256;60879;-66
2023/03/23 05:09:48;;;;;;;71.80;41.20;;;;;;;22.05;35.35;100041.14;107931;1256;72189;-67
2023/03/23 05:12:18;;;;;;;62.30;36.60;;;;;;;21.91;35.63;100043.41;107861;1259;71986;-66
2023/03/23 05:14:58;;;;;;;59.40;36.60;;;;;;;21.94;35.76;100042.30;107843;1259;72772;-66
2023/03/23 05:17:27;;;;;;;72.50;42.30;;;;;;;21.93;35.68;100043.45;107739;1256;62887;-65
2023/03/23 05:20:04;;;;;;;70.50;40.70;;;;;;;22.14;35.57;100043.77;107937;1256;61132;-66
2023/03/23 05:22:41;;;;;;;64.70;38.60;;;;;;;22.56;34.79;100041.21;107930;1256;74697;-67
2023/03/23 05:25:08;;;;;;;73.30;38.70;;;;;;;22.48;34.64;100043.87;107675;1255;69169;-66
2023/03/23 05:27:42;;;;;;;61.50;35.90;;;;;;;22.63;34.66;100045.45;107759;1256;73835;-67
2023/03/23 05:30:20;;;;;;;73.40;41.20;;;;;;;22.44;34.85;100046.00;107855;1256;63132;-66
2023/03/23 05:32:51;;;;;;;78.90;46.10;;;;;;;22.22;34.75;100046.13;107819;1256;61500;-66
2023/03/23 05:35:37;;;;;;;67.90;38.70;;;;;;;22.11;35.54;100050.13;107871;1256;73042;-68
2023/03/23 05:38:04;;;;;;;70.80;42.30;;;;;;;22.31;34.88;100048.07;107939;1256;68324;-65
2023/03/23 05:40:36;;;;;;;70.80;41.60;;;;;;;22.45;34.87;100047.36;107951;1256;73410;-65
2023/03/23 05:43:23;;;;;;;66.20;38.30;;;;;;;22.07;35.55;100048.46;107929;1256;61018;-71
2023/03/23 05:46:01;;;;;;;76.90;45.90;;;;;;;21.30;36.70;100048.70;107925;1255;61564;-67
2023/03/23 05:48:28;;;;;;;70.10;42.50;;;;;;;21.38;36.85;100052.53;107942;1256;73085;-67
2023/03/23 05:50:56;;;;;;;71.60;39.30;;;;;;;21.05;37.35;100055.40;107773;1256;70208;-67
2023/03/23 05:53:25;;;;;;;73.50;43.60;;;;;;;21.34;36.60;100053.95;107765;1257;72934;-66
2023/03/23 05:55:58;;;;;;;74.90;41.10;;;;;;;21.38;36.75;100055.36;107997;1257;60984;-65
2023/03/23 05:58:35;;;;;;;73.50;42.90;;;;;;;21.57;36.54;100056.55;107824;1257;61193;-66
2023/03/23 06:01:07;;;;;;;79.10;45.70;;;;;;;21.48;36.53;100057.83;107820;1257;73257;-66
2023/03/23 06:03:37;;;;;;;73.60;45.30;;;;;;;21.53;36.79;100059.14;107787;1258;70682;-67
2023/03/23 06:06:11;;;;;;;81.90;46.10;;;;;;;21.81;36.40;100061.29;108009;1260;73170;-67
2023/03/23 06:08:50;;;;;;;78.20;46.90;;;;;;;21.81;36.23;100066.93;107853;1260;60668;-66
2023/03/23 06:11:22;;;;;;;66.30;38.50;;;;;;;21.65;36.73;100064.75;107956;1255;59861;-66
2023/03/23 06:14:04;;;;;;;82.50;45.40;;;;;;;21.66;36.65;100065.08;107797;1256;72281;-67
2023/03/23 06:16:33;;;;;;;66.70;40.90;;;;;;;21.95;36.12;100065.79;107764;1257;70245;-68
2023/03/23 06:19:03;;;;;;;76.80;42.60;;;;;;;21.93;36.47;100067.75;107972;1257;74428;-66
2023/03/23 06:21:35;;;;;;;73.80;41.90;;;;;;;22.21;35.88;100063.00;108011;1257;61663;-67
2023/03/23 06:24:11;;;;;;;74.50;39.80;;;;;;;22.46;35.61;100067.27;107980;1256;60002;-67
2023/03/23 06:26:44;;;;;;;75.50;43.50;;;;;;;22.55;35.68;100071.73;107841;1256;72195;-67
2023/03/23 06:29:15;;;;;;;70.30;44.20;;;;;;;22.53;35.32;100073.33;107883;1256;69381;-67
2023/03/23 06:31:51;;;;;;;72.30;40.70;;;;;;;22.34;35.72;100070.34;107998;1260;71418;-68
2023/03/23 06:34:18;;;;;;;72.20;41.00;;;;;;;22.35;35.89;100072.79;107852;1257;62227;-65
2023/03/23 06:37:03;;;;;;;69.10;41.70;;;;;;;22.61;34.98;100074.17;108004;1256;59988;-68
2023/03/23 06:39:38;;;;;;;63.80;38.10;;;;;;;22.69;35.32;100078.13;107803;1256;73700;-66
2023/03/23 06:42:15;;;;;;;67.00;40.30;;;;;;;22.78;35.35;100079.80;108033;1257;69555;-67
2023/03/23 06:44:48;;;;;;;77.80;41.70;;;;;;;22.85;35.16;100075.30;107798;1263;71594;-66
2023/03/23 06:47:15;;;;;;;65.10;38.20;;;;;;;23.05;35.02;100072.46;107860;1257;63276;-67
2023/03/23 06:49:47;;;;;;;66.80;40.00;;;;;;;23.41;34.32;100069.94;107991;1256;61378;-66
2023/03/23 06:52:20;;;;;;;65.40;38.00;;;;;;;23.35;34.25;100067.61;107912;1256;73020;-66
2023/03/23 06:54:47;;;;;;;58.60;34.90;;;;;;;23.41;34.43;100068.52;107744;1262;69578;-68
2023/03/23 06:57:15;;;;;;;57.00;36.10;;;;;;;23.14;34.16;100067.14;107947;1256;72323;-69
2023/03/23 06:59:45;;;;;;;59.20;34.20;;;;;;;23.27;34.27;100068.53;107965;1256;63195;-67
2023/03/23 07:02:16;;;;;;;62.50;34.50;;;;;;;23.61;33.99;100067.90;108013;1256;60297;-67
2023/03/23 07:04:46;;;;;;;58.20;35.70;;;;;;;23.80;33.23;100065.25;107968;1256;72186;-68
2023/03/23 07:07:18;;;;;;;54.40;33.40;;;;;;;23.83;33.48;100068.02;108037;1256;69458;-69
2023/03/23 07:10:10;;;;;;;58.00;34.10;;;;;;;23.56;33.68;100063.31;107936;1256;73911;-67
2023/03/23 07:12:40;;;;;;;57.70;32.90;;;;;;;23.69;33.12;100063.04;107980;1256;61055;-68
2023/03/23 07:15:10;;;;;;;48.20;31.00;;;;;;;23.69;33.41;100062.54;107746;1256;60374;-68
2023/03/23 07:17:39;;;;;;;50.70;32.10;;;;;;;23.90;32.91;100064.38;107840;1254;75140;-67
2023/03/23 07:20:18;;;;;;;47.20;29.60;;;;;;;24.42;32.50;100065.32;108043;1256;68550;-68
2023/03/23 07:22:46;;;;;;;51.10;30.00;;;;;;;24.59;32.64;100064.75;107951;1254;73353;-66
2023/03/23 07:25:22;;;;;;;48.80;30.90;;;;;;;24.81;31.84;100066.42;108027;1254;63010;-67
2023/03/23 07:27:54;;;;;;;45.40;28.50;;;;;;;25.05;31.29;100061.39;108056;1254;61095;-67
2023/03/23 07:30:40;;;;;;;50.50;28.20;;;;;;;25.63;30.67;100063.48;108022;1254;74321;-68
2023/03/23 07:33:09;;;;;;;44.20;26.80;;;;;;;25.94;30.05;100063.77;108282;1253;71561;-67
2023/03/23 07:35:38;;;;;;;40.10;26.60;;;;;;;25.84;29.72;100066.42;108078;1252;71859;-67
2023/03/23 07:38:09;;;;;;;38.80;24.90;;;;;;;25.71;29.63;100063.05;108131;1253;60440;-66
2023/03/23 07:40:36;;;;;;;45.90;27.40;;;;;;;25.60;29.83;100064.01;108223;1253;61311;-67
2023/03/23 07:43:08;;;;;;;37.80;23.00;;;;;;;25.55;29.88;100063.09;108298;1253;73231;-67
2023/03/23 07:45:56;;;;;;;36.50;23.20;;;;;;;24.80;30.44;100062.59;107983;1253;70430;-67
2023/03/23 07:48:26;;;;;;;37.20;23.00;;;;;;;25.08;30.02;100056.55;108218;1252;73929;-66
2023/03/23 07:50:54;;;;;;;36.50;23.70;;;;;;;25.49;29.68;100053.40;108296;1253;61608;-68
2023/03/23 07:53:24;;;;;;;39.30;24.10;;;;;;;26.02;28.95;100052.33;108159;1252;61376;-68
2023/03/23 07:55:59;;;;;;;33.90;22.00;;;;;;;26.64;28.33;100049.65;108101;1254;74366;-66
2023/03/23 07:58:47;;;;;;;34.20;23.60;;;;;;;26.61;28.33;100046.41;108210;1254;70522;-67
2023/03/23 08:01:15;;;;;;;37.50;24.70;;;;;;;26.97;27.79;100042.41;108256;1253;73211;-69
2023/03/23 08:03:48;;;;;;;35.00;22.50;;;;;;;27.16;27.39;100041.98;108145;1253;61686;-68
2023/03/23 08:06:33;;;;;;;33.30;22.40;;;;;;;26.97;27.73;100044.38;108277;1253;61516;-66
2023/03/23 08:09:18;;;;;;;38.90;24.30;;;;;;;27.50;27.03;100043.85;108235;1252;74654;-68
2023/03/23 08:12:04;;;;;;;38.60;23.90;;;;;;;27.70;26.81;100042.56;108295;1253;71571;-68
2023/03/23 08:14:55;;;;;;;36.80;24.50;;;;;;;27.68;27.00;100036.48;107975;1253;73232;-65
2023/03/23 08:17:42;;;;;;;38.10;25.70;;;;;;;27.99;26.48;100042.30;108255;1253;60781;-67
2023/03/23 08:20:25;;;;;;;39.70;26.30;;;;;;;28.24;26.04;100038.20;108306;1253;60601;-67
2023/03/23 08:23:02;;;;;;;42.30;26.50;;;;;;;28.38;26.12;100044.71;108347;1252;73640;-67
2023/03/23 08:25:47;;;;;;;43.00;28.10;;;;;;;28.13;25.88;100044.80;108126;1253;69422;-68
2023/03/23 08:28:14;;;;;;;41.50;27.10;;;;;;;28.01;26.13;100047.43;108310;1254;72312;-69
2023/03/23 08:31:06;;;;;;;44.40;26.80;;;;;;;27.90;26.51;100044.12;108179;1252;61094;-66
2023/03/23 08:33:43;;;;;;;48.80;28.10;;;;;;;28.05;26.25;100047.59;108331;1253;59742;-66
2023/03/23 08:36:22;;;;;;;47.50;28.60;;;;;;;28.06;26.19;100043.84;108145;1253;73849;-67
2023/03/23 08:39:18;;;;;;;47.10;28.50;;;;;;;28.32;26.03;100041.67;107659;1253;71116;-67
2023/03/23 08:42:09;;;;;;;46.00;28.20;;;;;;;28.78;25.47;100041.61;107887;1252;73301;-66
2023/03/23 08:44:57;;;;;;;50.90;28.80;;;;;;;28.15;25.98;100039.73;107997;1252;61585;-67
2023/03/23 08:47:44;;;;;;;46.50;27.50;;;;;;;27.94;26.28;100034.36;108316;1253;60338;-68
2023/03/23 08:50:35;;;;;;;43.70;27.00;;;;;;;27.93;26.46;100032.63;108155;1253;75071;-68
2023/03/23 08:53:15;;;;;;;48.30;29.40;;;;;;;27.96;26.32;100028.11;108092;1254;71189;-67
2023/03/23 08:55:46;;;;;;;;;;;;;;;28.29;26.04;100023.03;108195;1253;73984;-67
2023/03/23 08:58:12;;;;;;;39.30;25.20;;;;;;;28.29;25.88;100022.96;108200;1253;60359;-68
2023/03/23 09:01:00;;;;;;;41.60;26.60;;;;;;;28.94;24.86;100021.41;108131;1253;59910;-68
2023/03/23 09:03:39;;;;;;;39.90;24.00;;;;;;;29.14;24.74;100016.67;108093;1253;74390;-66
2023/03/23 09:06:36;;;;;;;43.80;26.00;;;;;;;29.01;24.99;100022.05;107640;1253;70385;-66
2023/03/23 09:09:06;;;;;;;37.30;25.40;;;;;;;29.18;24.68;100013.64;108197;1253;73890;-67
2023/03/23 09:11:34;;;;;;;38.80;24.30;;;;;;;28.88;24.96;100012.63;108289;1253;60327;-66
2023/03/23 09:14:02;;;;;;;38.60;24.80;;;;;;;29.14;24.99;100008.91;108138;1253;61219;-67
2023/03/23 09:16:32;;;;;;;40.90;25.00;;;;;;;29.44;24.38;100011.91;108139;1253;73741;-66
2023/03/23 09:19:00;;;;;;;38.90;23.20;;;;;;;29.25;24.66;100009.80;108152;1253;71614;-66
2023/03/23 09:21:28;;;;;;;35.30;23.00;;;;;;;29.52;24.49;100007.02;108200;1253;72808;-67
2023/03/23 09:23:58;;;;;;;36.30;22.30;;;;;;;29.71;24.15;100007.39;108172;1253;61207;-67
2023/03/23 09:26:26;;;;;;;39.90;22.80;;;;;;;29.79;24.33;100006.82;108131;1253;60361;-67
2023/03/23 09:28:53;;;;;;;35.70;23.20;;;;;;;30.25;23.62;100003.63;108014;1257;73365;-67
2023/03/23 09:31:20;;;;;;;32.20;22.40;;;;;;;29.83;23.92;100000.75;108088;1253;69357;-67
2023/03/23 09:33:51;;;;;;;38.80;24.10;;;;;;;29.86;24.04;99999.13;108091;1253;73085;-67
2023/03/23 09:36:21;;;;;;;34.50;22.60;;;;;;;29.63;24.05;99996.88;108134;1253;61355;-66
2023/03/23 09:38:48;;;;;;;34.00;21.10;;;;;;;29.78;24.23;99997.98;108132;1253;60794;-68
2023/03/23 09:41:16;;;;;;;30.30;21.60;;;;;;;29.86;23.93;99995.48;108229;1253;74795;-66
2023/03/23 09:44:12;;;;;;;35.70;22.50;;;;;;;29.75;24.01;99993.02;108182;1252;71338;-66
2023/03/23 09:47:01;;;;;;;32.60;21.90;;;;;;;29.83;24.07;99985.88;108106;1252;73556;-67
2023/03/23 09:49:44;;;;;;;37.20;22.50;;;;;;;30.03;23.86;99984.27;108163;1251;61577;-66
2023/03/23 09:52:14;;;;;;;32.00;21.50;;;;;;;29.22;24.70;99983.34;108320;1251;60311;-67
2023/03/23 09:54:50;;;;;;;37.40;22.30;;;;;;;29.38;24.51;99981.16;108354;1253;73493;-67
2023/03/23 09:57:46;;;;;;;34.10;23.10;;;;;;;29.54;24.43;99978.02;108404;1251;70868;-68
2023/03/23 10:00:17;;;;;;;37.30;23.70;;;;;;;29.77;23.82;99976.71;108341;1255;73448;-68
2023/03/23 10:03:17;;;;;;;35.20;23.30;;;;;;;29.82;24.04;99971.74;108213;1251;60515;-68
2023/03/23 10:05:49;;;;;;;34.00;22.30;;;;;;;29.93;24.13;99966.77;108295;1251;61698;-66
2023/03/23 10:08:18;;;;;;;31.70;22.50;;;;;;;30.24;23.85;99966.16;108116;1251;74530;-66
2023/03/23 10:10:56;;;;;;;32.90;22.00;;;;;;;30.24;23.86;99964.59;108119;1251;71476;-65
2023/03/23 10:13:38;;;;;;;41.00;23.00;;;;;;;30.07;24.06;99960.95;108342;1251;73667;-66
2023/03/23 10:16:11;;;;;;;35.70;22.20;;;;;;;30.08;24.00;99957.89;108282;1251;61335;-67
2023/03/23 10:19:16;;;;;;;37.90;23.50;;;;;;;29.75;24.64;99959.23;108345;1253;61289;-68
2023/03/23 10:21:54;;;;;;;41.20;22.00;;;;;;;29.48;24.74;99954.20;108216;1256;75517;-69
2023/03/23 10:24:33;;;;;;;41.30;21.80;;;;;;;29.02;25.41;99956.44;108186;1251;70895;-67
2023/03/23 10:27:06;;;;;;;35.50;22.10;;;;;;;29.16;25.04;99949.02;108366;1256;73910;-67
2023/03/23 10:29:37;;;;;;;41.30;24.50;;;;;;;28.97;25.40;99943.86;108146;1253;61404;-67
2023/03/23 10:32:13;;;;;;;36.60;24.30;;;;;;;29.08;25.00;99944.36;108358;1251;60418;-67
2023/03/23 10:34:47;;;;;;;40.20;24.70;;;;;;;29.60;25.06;99945.02;108415;1251;75058;-66
2023/03/23 10:37:21;;;;;;;38.80;24.50;;;;;;;29.65;24.72;99943.76;108220;1251;70646;-66
2023/03/23 10:39:54;;;;;;;34.70;22.20;;;;;;;29.56;24.58;99943.70;108387;1251;70854;-66
2023/03/23 10:42:28;;;;;;;38.50;22.90;;;;;;;29.35;25.34;99942.23;108363;1251;61330;-67
2023/03/23 10:44:56;;;;;;;35.20;23.00;;;;;;;29.39;24.91;99935.40;108363;1255;60409;-66
2023/03/23 10:47:24;;;;;;;36.90;22.30;;;;;;;29.17;25.03;99937.48;108362;1251;74989;-68
2023/03/23 10:49:58;;;;;;;41.50;24.50;;;;;;;29.51;24.93;99930.09;108297;1251;71051;-68
2023/03/23 10:52:35;;;;;;;40.90;26.00;;;;;;;30.33;24.25;99930.02;108353;1251;70897;-68
2023/03/23 10:55:15;;;;;;;33.70;22.10;;;;;;;30.88;23.63;99924.89;108337;1251;61376;-67
2023/03/23 10:57:47;;;;;;;40.40;23.70;;;;;;;31.26;23.13;99922.34;108164;1251;61215;-67
2023/03/23 11:00:21;;;;;;;36.30;21.80;;;;;;;31.57;22.69;99918.94;108287;1251;75307;-63
2023/03/23 11:03:06;;;;;;;27.10;18.90;;;;;;;31.63;22.79;99915.06;108172;1251;71392;-67
2023/03/23 11:05:57;;;;;;;31.80;21.20;;;;;;;31.33;22.75;99915.64;108261;1253;73956;-68
2023/03/23 11:08:33;;;;;;;31.90;20.60;;;;;;;31.90;22.16;99912.29;108231;1251;60296;-68
2023/03/23 11:11:10;;;;;;;30.20;20.10;;;;;;;31.59;22.45;99909.32;108311;1251;61020;-67
2023/03/23 11:13:45;;;;;;;33.40;21.70;;;;;;;31.46;22.59;99904.58;108402;1251;73790;-67
2023/03/23 11:16:28;;;;;;;32.90;20.20;;;;;;;31.29;22.58;99904.98;108367;1251;71609;-69
2023/03/23 11:18:55;;;;;;;28.40;18.20;;;;;;;31.22;22.90;99893.70;108411;1251;71899;-68
2023/03/23 11:21:28;;;;;;;31.40;21.60;;;;;;;31.66;22.46;99889.85;108328;1253;60415;-68
2023/03/23 11:23:58;;;;;;;27.40;18.70;;;;;;;32.15;21.89;99882.75;108234;1251;60410;-66
2023/03/23 11:26:33;;;;;;;30.80;18.20;;;;;;;32.08;21.86;99881.63;108348;1251;74952;-68
2023/03/23 11:29:07;;;;;;;22.70;16.50;;;;;;;31.73;21.74;99886.07;108800;1251;70167;-67
2023/03/23 11:31:45;;;;;;;27.90;17.10;;;;;;;30.70;22.38;99879.70;108770;1251;70973;-68
2023/03/23 11:34:24;;;;;;;25.40;17.30;;;;;;;30.68;22.65;99874.11;108457;1253;60510;-67